This is the latest recevied weather packets stored in our database for station/object KE1THD. If no packets are shown the sender has not sent any weather packets the latest 1 day(s).
| Time | Temp. | Humidity | Pressure | Rain* | Wind** | Luminosity | Snow |
|---|---|---|---|---|---|---|---|
| 1778023874 | 14.44° C | 40% | 1008.7 hPa | 0 mm | 1.34 m/s, 299° | 108 W/m² | - |
| 1778023572 | 13.89° C | 39% | 1008.7 hPa | 0 mm | 0 m/s | 128 W/m² | - |
| 1778023269 | 13.89° C | 41% | 1008.6 hPa | 0 mm | 1.34 m/s, 288° | 113 W/m² | - |
| 1778022966 | 13.89° C | 43% | 1008.9 hPa | 0 mm | 0 m/s | 113 W/m² | - |
| 1778022665 | 13.89° C | 38% | 1008.9 hPa | 0 mm | 1.34 m/s, 241° | 97 W/m² | - |
| 1778022362 | 13.89° C | 42% | 1008.9 hPa | 0 mm | 0 m/s | 129 W/m² | - |
| 1778022058 | 13.89° C | 40% | 1009.2 hPa | 0 mm | 0.89 m/s, 218° | 147 W/m² | - |
| 1778021755 | 13.89° C | 39% | 1008.9 hPa | 0 mm | 0.45 m/s, 222° | 150 W/m² | - |
| 1778021451 | 13.89° C | 39% | 1009.3 hPa | 0 mm | 0.89 m/s, 302° | 141 W/m² | - |
| 1778021148 | 13.89° C | 39% | 1009.2 hPa | 0 mm | 1.34 m/s, 229° | 177 W/m² | - |
| 1778020846 | 13.89° C | 37% | 1009.3 hPa | 0 mm | 1.79 m/s, 228° | 141 W/m² | - |
| 1778020542 | 13.89° C | 38% | 1009.6 hPa | 0 mm | 1.34 m/s, 227° | 246 W/m² | - |
| 1778020238 | 13.89° C | 39% | 1009.6 hPa | 0 mm | 1.34 m/s, 214° | 189 W/m² | - |
| 1778019935 | 13.89° C | 37% | 1009.4 hPa | 0 mm | 2.68 m/s, 249° | 181 W/m² | - |
| 1778019631 | 13.89° C | 38% | 1009.2 hPa | 0 mm | 0.89 m/s, 216° | 167 W/m² | - |
| 1778019329 | 13.89° C | 39% | 1009.3 hPa | 0 mm | 2.68 m/s, 331° | 176 W/m² | - |
| 1778019025 | 13.89° C | 39% | 1009.3 hPa | 0 mm | 0.45 m/s, 215° | 180 W/m² | - |
| 1778018722 | 13.89° C | 38% | 1009.4 hPa | 0 mm | 1.79 m/s, 298° | 231 W/m² | - |
| 1778018420 | 13.89° C | 38% | 1009.6 hPa | 0 mm | 1.34 m/s, 276° | 239 W/m² | - |
| 1778018126 | 13.89° C | 39% | 1009.4 hPa | 0 mm | 0.89 m/s, 227° | 210 W/m² | - |
| 1778017815 | 13.33° C | 38% | 1009.7 hPa | 0 mm | 0.45 m/s, 229° | 205 W/m² | - |
| 1778017514 | 13.33° C | 38% | 1009.7 hPa | 0 mm | 2.24 m/s, 310° | 214 W/m² | - |
| 1778017210 | 13.33° C | 37% | 1009.8 hPa | 0 mm | 2.24 m/s, 303° | 240 W/m² | - |
| 1778016908 | 13.33° C | 38% | 1009.7 hPa | 0 mm | 0.45 m/s, 254° | 240 W/m² | - |
| 1778016604 | 13.33° C | 39% | 1010.2 hPa | 0 mm | 1.34 m/s, 272° | 229 W/m² | - |
* Rain latest hour (hover to see other rain measurements)
** Current wind speed in m/s (hover to see current wind gust speed)